Time;durP1;ratioP1;P1;durP2;ratioP2;P2;SDS_P1;SDS_P2;PMS_P1;PMS_P2;Temp;Humidity;BMP_temperature;BMP_pressure;BME280_temperature;BME280_humidity;BME280_pressure;Samples;Min_cycle;Max_cycle;Signal;HPM_P1;HPM_P2
2021/11/23 00:00:14;;;;;;;0.00;0.00;;;;;;;6.20;64.80;103090.78;7364849;19;20030;-62
2021/11/23 00:02:41;;;;;;;0.10;0.10;;;;;;;6.26;64.65;103079.72;7363975;19;20094;-63
2021/11/23 00:05:07;;;;;;;0.00;0.00;;;;;;;6.33;65.07;103086.84;7368305;19;20002;-62
2021/11/23 00:07:33;;;;;;;0.10;0.10;;;;;;;6.23;64.75;103059.72;7363917;19;20023;-63
2021/11/23 00:09:59;;;;;;;0.10;0.10;;;;;;;6.45;65.06;103093.34;7364177;19;20015;-63
2021/11/23 00:12:24;;;;;;;0.00;0.00;;;;;;;6.52;65.08;103083.16;7361432;19;20040;-62
2021/11/23 00:14:51;;;;;;;0.00;0.00;;;;;;;6.59;64.88;103095.50;7367364;19;20035;-62
2021/11/23 00:17:16;;;;;;;0.08;0.08;;;;;;;6.64;64.57;103091.31;7363476;19;20891;-62
2021/11/23 00:19:42;;;;;;;0.03;0.03;;;;;;;6.71;64.63;103082.91;7366376;19;20048;-63
2021/11/23 00:22:08;;;;;;;0.10;0.10;;;;;;;6.75;64.46;103082.19;7366849;19;20022;-61
2021/11/23 00:24:34;;;;;;;0.10;0.10;;;;;;;6.77;64.80;103070.13;7362544;19;20130;-62
2021/11/23 00:27:00;;;;;;;0.10;0.10;;;;;;;6.88;64.74;103078.22;7367997;19;20014;-62
2021/11/23 00:29:25;;;;;;;0.03;0.03;;;;;;;6.94;64.78;103079.28;7365037;19;20034;-63
2021/11/23 00:31:50;;;;;;;0.00;0.00;;;;;;;6.98;64.48;103068.16;7365129;19;20019;-63
2021/11/23 00:34:16;;;;;;;0.10;0.10;;;;;;;7.01;64.46;103070.88;7366164;19;20050;-62
2021/11/23 00:36:41;;;;;;;0.10;0.10;;;;;;;7.10;64.71;103075.47;7365587;19;20015;-62
2021/11/23 00:39:07;;;;;;;0.00;0.00;;;;;;;7.14;64.50;103066.03;7365739;19;20019;-63
2021/11/23 00:41:32;;;;;;;0.00;0.00;;;;;;;7.09;64.69;103057.22;7365686;19;20423;-62
2021/11/23 00:43:58;;;;;;;0.00;0.00;;;;;;;7.16;64.22;103066.97;7360372;19;20027;-62
2021/11/23 00:46:23;;;;;;;0.00;0.00;;;;;;;7.32;64.24;103076.09;7354774;19;20095;-62
2021/11/23 00:48:49;;;;;;;0.00;0.00;;;;;;;7.34;64.17;103070.06;7366618;19;20019;-62
2021/11/23 00:51:15;;;;;;;0.00;0.00;;;;;;;7.41;64.15;103071.16;7361238;19;20828;-62
2021/11/23 00:53:40;;;;;;;0.00;0.00;;;;;;;7.45;64.47;103068.69;7358649;19;20010;-63
2021/11/23 00:56:07;;;;;;;0.10;0.10;;;;;;;7.49;64.17;103073.09;7363712;19;20026;-62
2021/11/23 00:58:33;;;;;;;0.00;0.00;;;;;;;7.49;64.19;103062.72;7361966;19;20007;-62
2021/11/23 01:00:59;;;;;;;0.10;0.10;;;;;;;7.52;64.70;103064.53;7362478;19;20034;-63
2021/11/23 01:03:27;;;;;;;0.00;0.00;;;;;;;7.62;64.19;103070.88;7360588;19;20093;-63
2021/11/23 01:05:52;;;;;;;0.10;0.10;;;;;;;7.66;64.53;103072.72;7361317;19;20007;-63
2021/11/23 01:08:18;;;;;;;0.00;0.00;;;;;;;7.68;64.13;103071.03;7357995;19;20007;-63
2021/11/23 01:10:44;;;;;;;0.00;0.00;;;;;;;7.70;64.40;103066.75;7357587;19;20025;-61
2021/11/23 01:13:11;;;;;;;0.00;0.00;;;;;;;7.76;64.18;103078.22;7356538;19;20017;-63
2021/11/23 01:15:36;;;;;;;0.00;0.00;;;;;;;7.78;64.18;103065.25;7356066;19;20018;-63
2021/11/23 01:18:03;;;;;;;0.03;0.03;;;;;;;7.82;64.09;103069.69;7357654;19;20090;-63
2021/11/23 01:20:29;;;;;;;0.03;0.03;;;;;;;7.87;64.16;103077.63;7360815;19;20025;-63
2021/11/23 01:22:57;;;;;;;0.00;0.00;;;;;;;7.90;64.31;103072.47;7360524;19;20010;-62
2021/11/23 01:25:22;;;;;;;;;;;;;;;7.97;62.92;103066.63;7362162;19;20142;-62
2021/11/23 01:27:49;;;;;;;0.00;0.00;;;;;;;7.95;64.11;103071.75;7365328;19;19973;-63
2021/11/23 01:30:15;;;;;;;0.00;0.00;;;;;;;7.98;63.96;103066.63;7353062;19;20034;-63
2021/11/23 01:32:42;;;;;;;0.00;0.00;;;;;;;7.90;63.79;103057.75;7319466;19;20485;-63
2021/11/23 01:35:12;;;;;;;0.03;0.03;;;;;;;8.02;64.33;103068.47;7314264;19;20793;-63
2021/11/23 01:37:39;;;;;;;0.00;0.00;;;;;;;8.03;64.33;103066.75;7361189;19;20008;-63
2021/11/23 01:40:06;;;;;;;0.10;0.10;;;;;;;8.06;64.36;103067.72;7361652;19;20026;-62
2021/11/23 01:42:31;;;;;;;0.10;0.10;;;;;;;8.06;63.96;103070.34;7366510;19;20078;-63
2021/11/23 01:44:57;;;;;;;0.00;0.00;;;;;;;8.10;64.40;103059.97;7359244;19;20023;-62
2021/11/23 01:47:22;;;;;;;0.00;0.00;;;;;;;8.12;64.29;103068.72;7365695;19;20401;-63
2021/11/23 01:49:48;;;;;;;0.00;0.00;;;;;;;8.14;64.27;103056.63;7361406;19;20047;-63
2021/11/23 01:52:13;;;;;;;0.00;0.00;;;;;;;8.15;64.21;103053.16;7365830;19;20831;-63
2021/11/23 01:54:40;;;;;;;0.00;0.00;;;;;;;8.17;64.54;103056.72;7362483;19;20011;-63
2021/11/23 01:57:06;;;;;;;0.03;0.03;;;;;;;8.19;64.63;103061.09;7364170;19;20405;-63
2021/11/23 01:59:32;;;;;;;0.00;0.00;;;;;;;8.23;64.30;103062.06;7367034;19;20027;-63
2021/11/23 02:01:57;;;;;;;0.03;0.03;;;;;;;8.25;64.33;103060.38;7358886;19;20029;-63
2021/11/23 02:04:22;;;;;;;0.10;0.10;;;;;;;8.25;64.10;103057.75;7365027;19;20421;-63
2021/11/23 02:06:48;;;;;;;0.00;0.00;;;;;;;7.98;64.32;103000.72;7354380;19;20006;-62
2021/11/23 02:09:14;;;;;;;0.10;0.10;;;;;;;8.29;64.09;103042.25;7360298;19;20090;-63
2021/11/23 02:11:39;;;;;;;0.00;0.00;;;;;;;8.30;64.27;103048.34;7361473;19;20813;-63
2021/11/23 02:14:05;;;;;;;0.00;0.00;;;;;;;8.32;64.10;103046.69;7364088;19;20010;-62
2021/11/23 02:16:31;;;;;;;0.10;0.10;;;;;;;8.24;64.48;103029.97;7363117;19;20106;-63
2021/11/23 02:18:57;;;;;;;0.00;0.00;;;;;;;8.34;64.45;103037.16;7360147;19;20081;-63
2021/11/23 02:21:22;;;;;;;0.00;0.00;;;;;;;8.36;64.19;103043.31;7365134;19;20019;-63
2021/11/23 02:23:48;;;;;;;0.00;0.00;;;;;;;8.30;64.44;103027.50;7359789;19;20014;-62
2021/11/23 02:26:14;;;;;;;0.00;0.00;;;;;;;8.39;64.43;103043.41;7364305;19;20074;-62
2021/11/23 02:28:39;;;;;;;0.00;0.00;;;;;;;8.41;64.01;103046.91;7363172;19;20017;-63
2021/11/23 02:31:06;;;;;;;0.00;0.00;;;;;;;8.43;64.37;103040.03;7362687;19;20006;-62
2021/11/23 02:33:32;;;;;;;0.00;0.00;;;;;;;8.43;64.18;103040.03;7362342;19;20003;-64
2021/11/23 02:36:02;;;;;;;0.00;0.00;;;;;;;8.48;64.38;103028.00;7358664;19;20041;-63
2021/11/23 02:38:28;;;;;;;0.00;0.00;;;;;;;8.51;64.19;103042.78;7360221;19;20002;-63
2021/11/23 02:40:54;;;;;;;0.03;0.03;;;;;;;8.43;64.22;103019.19;7359014;19;20257;-63
2021/11/23 02:43:21;;;;;;;0.00;0.00;;;;;;;8.53;64.29;103039.41;7360140;19;20014;-63
2021/11/23 02:45:46;;;;;;;0.10;0.10;;;;;;;8.55;64.26;103037.69;7364202;19;20995;-63
2021/11/23 02:48:13;;;;;;;0.00;0.00;;;;;;;8.56;64.13;103031.63;7359149;19;20022;-63
2021/11/23 02:50:41;;;;;;;0.00;0.00;;;;;;;8.58;64.64;103040.38;7356759;19;21357;-63
2021/11/23 02:53:07;;;;;;;0.00;0.00;;;;;;;8.46;64.32;103016.66;7361315;19;20006;-63
2021/11/23 02:55:33;;;;;;;0.10;0.10;;;;;;;8.62;64.18;103035.22;7360601;19;20250;-63
2021/11/23 02:58:00;;;;;;;0.00;0.00;;;;;;;8.65;64.30;103040.53;7358557;19;20028;-63
2021/11/23 03:00:28;;;;;;;0.10;0.10;;;;;;;8.66;64.04;103024.03;7351858;19;20020;-61
2021/11/23 03:02:54;;;;;;;0.00;0.00;;;;;;;8.66;64.28;103034.47;7356398;19;20014;-63
2021/11/23 03:05:22;;;;;;;0.05;0.05;;;;;;;8.67;64.14;103029.31;7357935;19;20018;-63
2021/11/23 03:07:49;;;;;;;0.00;0.00;;;;;;;8.68;64.49;103025.84;7359740;19;20011;-63
2021/11/23 03:10:16;;;;;;;0.00;0.00;;;;;;;8.70;64.20;103023.28;7359031;19;20033;-63
2021/11/23 03:12:46;;;;;;;0.00;0.00;;;;;;;8.73;64.02;103020.75;7356568;19;20018;-62
2021/11/23 03:15:11;;;;;;;0.00;0.00;;;;;;;8.72;63.97;103021.59;7367951;19;20031;-63
2021/11/23 03:17:37;;;;;;;0.10;0.10;;;;;;;8.73;63.94;103012.94;7363234;19;20482;-63
2021/11/23 03:20:05;;;;;;;0.00;0.00;;;;;;;8.74;64.40;103009.47;7368329;19;20015;-62
2021/11/23 03:22:30;;;;;;;;;;;;;;;8.80;63.41;103014.81;7365919;19;20462;-62
2021/11/23 03:24:56;;;;;;;0.10;0.10;;;;;;;8.76;64.26;103019.06;7364496;19;19921;-63
2021/11/23 03:27:21;;;;;;;0.00;0.00;;;;;;;8.77;64.09;103025.19;7366224;19;20518;-63
2021/11/23 03:29:47;;;;;;;0.00;0.00;;;;;;;8.69;63.82;103005.88;7365062;19;20028;-63
2021/11/23 03:32:13;;;;;;;0.03;0.03;;;;;;;8.77;64.55;103022.56;7362406;19;20106;-63
2021/11/23 03:34:39;;;;;;;0.10;0.10;;;;;;;8.77;64.11;103025.19;7366653;19;20031;-62
2021/11/23 03:37:16;;;;;;;0.00;0.00;;;;;;;8.79;64.44;103023.47;7365660;19;20014;-61
2021/11/23 03:39:43;;;;;;;0.00;0.00;;;;;;;8.73;64.26;103012.94;7354485;19;20010;-62
2021/11/23 03:42:09;;;;;;;0.00;0.00;;;;;;;8.80;64.51;103025.22;7365711;19;20010;-63
2021/11/23 03:44:35;;;;;;;0.00;0.00;;;;;;;8.80;64.12;103020.03;7362489;19;20014;-62
2021/11/23 03:47:03;;;;;;;0.00;0.00;;;;;;;8.82;64.15;103020.94;7364047;19;20010;-62
2021/11/23 03:49:29;;;;;;;0.00;0.00;;;;;;;8.78;64.34;103013.91;7363645;19;20702;-63
2021/11/23 03:51:55;;;;;;;0.00;0.00;;;;;;;8.81;64.39;103011.34;7363803;19;20006;-63
2021/11/23 03:54:21;;;;;;;0.00;0.00;;;;;;;8.82;64.30;103013.13;7365268;19;20018;-63
2021/11/23 03:56:47;;;;;;;0.00;0.00;;;;;;;8.82;64.33;103007.94;7362553;19;20045;-63
2021/11/23 03:59:14;;;;;;;0.00;0.00;;;;;;;8.81;64.07;103012.22;7363826;19;20010;-63
2021/11/23 04:01:39;;;;;;;0.00;0.00;;;;;;;8.85;64.42;103007.97;7365132;19;20538;-63
2021/11/23 04:04:05;;;;;;;0.10;0.10;;;;;;;8.86;64.49;103009.72;7364116;19;20031;-63
2021/11/23 04:06:31;;;;;;;0.00;0.00;;;;;;;8.86;64.25;103014.94;7360805;19;20018;-63
2021/11/23 04:08:56;;;;;;;0.10;0.10;;;;;;;8.87;64.49;103021.94;7362239;19;20017;-63
2021/11/23 04:11:22;;;;;;;0.00;0.00;;;;;;;8.84;64.27;103016.63;7364785;19;20010;-62
2021/11/23 04:13:47;;;;;;;0.00;0.00;;;;;;;8.88;64.66;103013.25;7367701;19;20007;-62
2021/11/23 04:16:13;;;;;;;0.00;0.00;;;;;;;8.91;64.13;103022.84;7363234;19;20040;-63
2021/11/23 04:18:39;;;;;;;0.10;0.10;;;;;;;8.87;64.65;102998.47;7360744;19;20014;-62
2021/11/23 04:21:04;;;;;;;0.10;0.10;;;;;;;8.93;64.32;103013.34;7365226;19;20014;-63
2021/11/23 04:23:30;;;;;;;0.00;0.00;;;;;;;8.93;64.18;103014.25;7361452;19;20018;-61
2021/11/23 04:25:56;;;;;;;0.03;0.03;;;;;;;8.95;64.41;103011.66;7367359;19;20010;-63
2021/11/23 04:28:22;;;;;;;0.03;0.03;;;;;;;8.92;64.33;102998.53;7366415;19;20070;-61
2021/11/23 04:30:47;;;;;;;0.00;0.00;;;;;;;8.96;64.54;103006.47;7367249;19;20003;-63
2021/11/23 04:33:14;;;;;;;0.00;0.00;;;;;;;8.97;64.32;103003.03;7368947;19;20424;-62
2021/11/23 04:35:43;;;;;;;0.00;0.00;;;;;;;8.94;64.42;103000.34;7369893;19;20006;-63
2021/11/23 04:38:09;;;;;;;0.00;0.00;;;;;;;8.99;64.38;103008.28;7367174;19;20037;-63
2021/11/23 04:40:35;;;;;;;0.10;0.10;;;;;;;8.99;64.28;103009.16;7366937;19;20033;-63
2021/11/23 04:43:02;;;;;;;0.00;0.00;;;;;;;8.99;64.35;103000.44;7366223;19;20010;-63
2021/11/23 04:45:28;;;;;;;0.00;0.00;;;;;;;9.00;64.21;103008.28;7365354;19;20029;-61
2021/11/23 04:47:53;;;;;;;0.00;0.00;;;;;;;8.93;64.43;102984.69;7369643;19;20041;-63
2021/11/23 04:50:19;;;;;;;0.00;0.00;;;;;;;9.00;64.29;102997.88;7367704;19;20541;-63
2021/11/23 04:52:44;;;;;;;0.00;0.00;;;;;;;9.01;64.14;102999.63;7368762;19;20011;-63
2021/11/23 04:55:10;;;;;;;0.00;0.00;;;;;;;9.02;64.04;102996.19;7366581;19;20022;-62
2021/11/23 04:57:35;;;;;;;0.00;0.00;;;;;;;8.92;64.26;102978.59;7364447;19;20098;-63
2021/11/23 05:00:01;;;;;;;0.00;0.00;;;;;;;9.02;63.98;102990.06;7369798;19;20031;-62
2021/11/23 05:02:27;;;;;;;0.00;0.00;;;;;;;8.93;64.08;102979.50;7365055;19;20014;-62
2021/11/23 05:04:52;;;;;;;0.05;0.05;;;;;;;9.02;64.07;102993.59;7367181;19;20006;-63
2021/11/23 05:07:17;;;;;;;0.10;0.10;;;;;;;9.02;64.26;102990.97;7363268;19;20002;-63
2021/11/23 05:09:43;;;;;;;0.00;0.00;;;;;;;9.00;64.01;102977.03;7368695;19;20010;-63
2021/11/23 05:12:08;;;;;;;0.00;0.00;;;;;;;8.98;64.17;102976.13;7365269;19;20025;-62
2021/11/23 05:14:33;;;;;;;0.00;0.00;;;;;;;9.03;63.58;102982.31;7368203;19;20010;-62
2021/11/23 05:16:59;;;;;;;0.00;0.00;;;;;;;8.92;64.33;102968.19;7366938;19;20006;-63
2021/11/23 05:19:24;;;;;;;0.00;0.00;;;;;;;9.02;64.05;102983.16;7367230;19;20010;-63
2021/11/23 05:21:50;;;;;;;0.00;0.00;;;;;;;9.02;64.12;102983.16;7363527;19;20374;-63
2021/11/23 05:24:15;;;;;;;0.10;0.10;;;;;;;9.03;64.39;102987.53;7363509;19;20531;-63
2021/11/23 05:26:41;;;;;;;0.00;0.00;;;;;;;9.04;63.73;102988.41;7366974;19;20010;-62
2021/11/23 05:29:07;;;;;;;0.00;0.00;;;;;;;8.98;63.99;102976.13;7367040;19;20018;-62
2021/11/23 05:31:33;;;;;;;0.00;0.00;;;;;;;9.04;64.10;102986.66;7366813;19;20010;-63
2021/11/23 05:33:59;;;;;;;0.00;0.00;;;;;;;9.05;64.04;102991.03;7365194;19;20370;-63
2021/11/23 05:36:25;;;;;;;0.10;0.10;;;;;;;9.06;64.06;102989.28;7365208;19;20010;-63
2021/11/23 05:38:50;;;;;;;0.00;0.00;;;;;;;9.05;64.11;102975.38;7366213;19;20038;-63
2021/11/23 05:41:16;;;;;;;0.00;0.00;;;;;;;9.06;63.90;102982.34;7365652;19;20010;-62
2021/11/23 05:43:41;;;;;;;0.10;0.10;;;;;;;9.07;64.23;102978.91;7364726;19;20042;-63
2021/11/23 05:46:07;;;;;;;0.10;0.10;;;;;;;9.07;64.34;102978.91;7365732;19;20049;-63
2021/11/23 05:48:32;;;;;;;0.10;0.10;;;;;;;9.05;64.37;102975.38;7366781;19;20086;-62
2021/11/23 05:51:03;;;;;;;0.10;0.10;;;;;;;9.08;64.35;102985.00;7364639;19;20018;-62
2021/11/23 05:53:30;;;;;;;0.00;0.00;;;;;;;9.06;64.19;102984.06;7367831;19;20026;-63
2021/11/23 05:55:55;;;;;;;0.08;0.08;;;;;;;9.09;64.17;102987.63;7366844;19;20118;-63
2021/11/23 05:58:21;;;;;;;0.00;0.00;;;;;;;9.02;64.38;102985.78;7363972;19;20460;-63
2021/11/23 06:00:46;;;;;;;0.00;0.00;;;;;;;9.09;63.97;102995.47;7365022;19;20010;-63
2021/11/23 06:03:12;;;;;;;0.00;0.00;;;;;;;9.09;64.37;102992.84;7360859;19;20042;-63
2021/11/23 06:05:37;;;;;;;0.00;0.00;;;;;;;9.10;64.37;102988.50;7366822;19;20030;-62
2021/11/23 06:08:03;;;;;;;0.00;0.00;;;;;;;9.09;64.32;102982.41;7364179;19;20022;-63
2021/11/23 06:10:28;;;;;;;0.08;0.08;;;;;;;9.09;64.24;102982.41;7367650;19;20352;-63
2021/11/23 06:12:54;;;;;;;0.00;0.00;;;;;;;9.02;63.96;102969.22;7367301;19;20030;-64
2021/11/23 06:15:21;;;;;;;0.00;0.00;;;;;;;9.09;64.14;102982.41;7361085;19;20054;-63
2021/11/23 06:17:47;;;;;;;0.00;0.00;;;;;;;9.09;63.77;102981.53;7366106;19;20027;-62
2021/11/23 06:20:13;;;;;;;0.00;0.00;;;;;;;9.06;63.84;102976.25;7365939;19;20011;-63
2021/11/23 06:22:39;;;;;;;0.10;0.10;;;;;;;9.07;64.07;102978.00;7362187;19;20093;-63
2021/11/23 06:25:07;;;;;;;0.10;0.10;;;;;;;9.03;64.04;102974.50;7361862;19;20117;-63
2021/11/23 06:27:32;;;;;;;0.10;0.10;;;;;;;9.05;63.69;102980.59;7368434;19;20013;-63
2021/11/23 06:29:59;;;;;;;0.00;0.00;;;;;;;9.04;63.64;102972.75;7362897;19;20074;-63
2021/11/23 06:32:24;;;;;;;0.10;0.10;;;;;;;9.06;64.17;102976.25;7365007;19;20473;-64
2021/11/23 06:34:50;;;;;;;0.00;0.00;;;;;;;9.05;64.03;102979.72;7359641;19;20074;-64
2021/11/23 06:37:15;;;;;;;0.00;0.00;;;;;;;9.05;64.01;102970.16;7361466;19;20015;-63
2021/11/23 06:39:41;;;;;;;0.00;0.00;;;;;;;9.06;63.96;102971.94;7364258;19;20011;-63
2021/11/23 06:42:06;;;;;;;0.00;0.00;;;;;;;8.92;64.08;102947.34;7362007;19;20481;-63
2021/11/23 06:44:31;;;;;;;0.00;0.00;;;;;;;9.08;64.14;102975.47;7365868;19;20007;-63
2021/11/23 06:46:57;;;;;;;0.10;0.10;;;;;;;9.07;64.12;102972.81;7352137;19;20010;-62
2021/11/23 06:49:22;;;;;;;0.10;0.10;;;;;;;9.03;63.94;102966.66;7372114;19;20604;-63
2021/11/23 06:51:48;;;;;;;0.10;0.10;;;;;;;9.08;64.28;102970.25;7368388;19;20007;-63
2021/11/23 06:54:13;;;;;;;0.00;0.00;;;;;;;8.98;63.87;102954.41;7370964;19;20010;-63
2021/11/23 06:56:38;;;;;;;0.00;0.00;;;;;;;9.06;63.74;102964.09;7373446;19;20010;-64
2021/11/23 06:59:04;;;;;;;0.00;0.00;;;;;;;9.10;63.85;102975.47;7370249;19;20013;-62
2021/11/23 07:01:30;;;;;;;0.00;0.00;;;;;;;8.99;64.10;102953.53;7370524;19;20018;-63
2021/11/23 07:03:56;;;;;;;0.05;0.05;;;;;;;9.09;63.98;102972.00;7367761;19;20058;-62
2021/11/23 07:06:22;;;;;;;0.00;0.00;;;;;;;9.09;63.84;102969.41;7366353;19;20014;-63
2021/11/23 07:08:47;;;;;;;0.00;0.00;;;;;;;9.10;64.17;102978.09;7371515;19;20054;-63
2021/11/23 07:11:13;;;;;;;0.03;0.03;;;;;;;9.08;63.71;102964.16;7370182;19;20645;-62
2021/11/23 07:13:39;;;;;;;0.00;0.00;;;;;;;8.98;63.79;102951.78;7366383;19;20717;-63
2021/11/23 07:16:05;;;;;;;0.00;0.00;;;;;;;9.10;64.03;102965.94;7368324;19;20316;-63
2021/11/23 07:18:30;;;;;;;0.00;0.00;;;;;;;8.99;64.09;102944.00;7367865;19;20018;-62
2021/11/23 07:20:56;;;;;;;0.00;0.00;;;;;;;9.10;64.15;102968.53;7368476;19;20470;-63
2021/11/23 07:23:23;;;;;;;0.00;0.00;;;;;;;9.12;64.37;102976.38;7366385;19;20052;-63
2021/11/23 07:25:49;;;;;;;0.00;0.00;;;;;;;9.12;64.17;102972.88;7370588;19;20541;-63
2021/11/23 07:28:14;;;;;;;0.00;0.00;;;;;;;9.10;64.16;102968.53;7365052;19;20022;-63
2021/11/23 07:30:40;;;;;;;0.00;0.00;;;;;;;9.12;64.10;102971.16;7366984;19;20013;-63
2021/11/23 07:33:05;;;;;;;0.00;0.00;;;;;;;9.13;64.28;102972.06;7364097;19;20115;-63
2021/11/23 07:35:30;;;;;;;0.00;0.00;;;;;;;9.13;64.20;102974.69;7366255;19;20022;-62
2021/11/23 07:37:56;;;;;;;0.10;0.10;;;;;;;9.14;63.67;102979.03;7367330;19;20466;-60
2021/11/23 07:40:22;;;;;;;0.00;0.00;;;;;;;9.14;63.74;102968.59;7365041;19;20400;-63
2021/11/23 07:42:47;;;;;;;0.00;0.00;;;;;;;9.13;64.14;102965.13;7363450;19;20006;-63
2021/11/23 07:45:13;;;;;;;0.10;0.10;;;;;;;9.09;63.80;102966.78;7366197;19;20014;-63
2021/11/23 07:47:38;;;;;;;0.10;0.10;;;;;;;9.13;63.75;102977.28;7366817;19;20756;-63
2021/11/23 07:50:04;;;;;;;0.00;0.00;;;;;;;9.14;63.88;102985.13;7364282;19;20009;-63
2021/11/23 07:52:30;;;;;;;0.00;0.00;;;;;;;9.13;64.03;102977.28;7366318;19;20097;-63
2021/11/23 07:54:55;;;;;;;0.00;0.00;;;;;;;9.12;64.32;102976.38;7369640;19;20030;-63
2021/11/23 07:57:21;;;;;;;0.00;0.00;;;;;;;9.14;64.12;102981.66;7363130;19;20018;-63
2021/11/23 07:59:46;;;;;;;0.00;0.00;;;;;;;9.01;63.97;102963.13;7360962;19;20006;-63
2021/11/23 08:02:12;;;;;;;0.00;0.00;;;;;;;9.13;64.31;102983.38;7365312;19;20351;-63
2021/11/23 08:04:37;;;;;;;0.00;0.00;;;;;;;9.10;64.03;102978.09;7365827;19;20006;-63
2021/11/23 08:07:03;;;;;;;0.08;0.08;;;;;;;9.13;63.83;102982.50;7363370;19;20010;-63
2021/11/23 08:09:28;;;;;;;0.00;0.00;;;;;;;9.07;64.36;102978.91;7365789;19;20085;-63
2021/11/23 08:11:54;;;;;;;0.00;0.00;;;;;;;9.13;64.10;102982.50;7363132;19;20017;-63
2021/11/23 08:14:22;;;;;;;0.00;0.00;;;;;;;9.12;64.04;102991.13;7366554;19;20091;-64
2021/11/23 08:16:48;;;;;;;0.03;0.03;;;;;;;9.12;64.13;102986.81;7368034;19;20014;-63
2021/11/23 08:19:13;;;;;;;0.10;0.10;;;;;;;9.12;63.89;102984.19;7366919;19;20054;-62
2021/11/23 08:21:38;;;;;;;0.10;0.10;;;;;;;9.14;64.35;102992.06;7362634;19;20510;-62
2021/11/23 08:24:04;;;;;;;0.08;0.08;;;;;;;9.13;64.12;102996.41;7371494;19;20015;-62
2021/11/23 08:26:30;;;;;;;0.00;0.00;;;;;;;9.13;63.95;102999.00;7364574;19;20022;-61
2021/11/23 08:28:55;;;;;;;0.03;0.03;;;;;;;9.13;64.36;102998.13;7368106;19;20006;-62
2021/11/23 08:31:21;;;;;;;0.00;0.00;;;;;;;9.13;64.45;102998.13;7369030;19;20122;-60
2021/11/23 08:33:46;;;;;;;0.03;0.03;;;;;;;9.14;64.23;102999.88;7361410;19;21150;-63
2021/11/23 08:36:12;;;;;;;0.10;0.10;;;;;;;9.09;64.40;102991.97;7368527;19;20018;-63
2021/11/23 08:38:38;;;;;;;0.00;0.00;;;;;;;9.13;64.24;103008.56;7369204;19;20012;-63
2021/11/23 08:41:04;;;;;;;0.00;0.00;;;;;;;9.08;64.46;102998.03;7365540;19;21339;-63
2021/11/23 08:43:30;;;;;;;0.00;0.00;;;;;;;9.16;64.17;103006.88;7366989;19;20002;-62
2021/11/23 08:45:56;;;;;;;0.00;0.00;;;;;;;9.17;64.50;103002.53;7363732;19;20073;-63
2021/11/23 08:48:21;;;;;;;0.00;0.00;;;;;;;9.18;64.46;103001.72;7362590;19;20007;-63
2021/11/23 08:50:47;;;;;;;0.10;0.10;;;;;;;9.19;64.65;102998.25;7368407;19;20018;-62
2021/11/23 08:53:12;;;;;;;0.10;0.10;;;;;;;9.07;64.26;102984.13;7362748;19;20010;-62
2021/11/23 08:55:39;;;;;;;0.00;0.00;;;;;;;9.22;64.24;103008.72;7360386;19;20035;-63
2021/11/23 08:58:06;;;;;;;0.00;0.00;;;;;;;9.23;64.33;103006.16;7363640;19;20014;-63
2021/11/23 09:00:32;;;;;;;0.00;0.00;;;;;;;9.26;64.13;103011.41;7367014;19;20018;-63
2021/11/23 09:02:59;;;;;;;0.00;0.00;;;;;;;9.29;64.23;103008.00;7364935;19;20078;-63
2021/11/23 09:05:31;;;;;;;0.10;0.10;;;;;;;9.32;63.97;103011.53;7363546;19;20006;-62
2021/11/23 09:07:59;;;;;;;0.00;0.00;;;;;;;9.28;64.27;103006.25;7352803;19;20021;-63
2021/11/23 09:10:26;;;;;;;0.00;0.00;;;;;;;9.33;64.04;103007.22;7358210;19;20026;-62
2021/11/23 09:12:55;;;;;;;0.00;0.00;;;;;;;9.40;64.19;103016.03;7364201;19;20033;-63
2021/11/23 09:15:21;;;;;;;0.10;0.10;;;;;;;9.40;64.38;103014.31;7362683;19;20006;-63
2021/11/23 09:17:48;;;;;;;0.00;0.00;;;;;;;9.43;64.24;103018.69;7364964;19;22208;-62
2021/11/23 09:20:15;;;;;;;0.00;0.00;;;;;;;9.45;64.13;103017.00;7365135;19;20033;-63
2021/11/23 09:22:40;;;;;;;0.00;0.00;;;;;;;9.45;64.16;103007.44;7365123;19;20131;-63
2021/11/23 09:25:09;;;;;;;0.00;0.00;;;;;;;9.48;64.07;103012.75;7364615;19;20030;-63
2021/11/23 09:27:35;;;;;;;0.10;0.10;;;;;;;9.50;64.16;103003.19;7362627;19;20017;-62
2021/11/23 09:30:01;;;;;;;0.00;0.00;;;;;;;9.43;64.16;102997.81;7363226;19;20014;-63
2021/11/23 09:32:27;;;;;;;0.00;0.00;;;;;;;9.55;64.27;103014.59;7365499;19;20010;-63
2021/11/23 09:34:54;;;;;;;0.00;0.00;;;;;;;9.57;64.14;103014.63;7362846;19;20030;-61
2021/11/23 09:37:19;;;;;;;0.00;0.00;;;;;;;9.53;64.02;103011.09;7366059;19;20498;-63
2021/11/23 09:39:45;;;;;;;0.00;0.00;;;;;;;9.58;64.22;103011.19;7363085;19;20002;-62
2021/11/23 09:42:10;;;;;;;0.00;0.00;;;;;;;9.62;64.14;103006.03;7367418;19;20502;-63
2021/11/23 09:44:36;;;;;;;0.00;0.00;;;;;;;9.66;63.99;103006.09;7364409;19;20037;-62
2021/11/23 09:47:02;;;;;;;0.10;0.10;;;;;;;9.68;64.22;103017.41;7363935;19;20037;-63
2021/11/23 09:49:28;;;;;;;0.00;0.00;;;;;;;9.71;64.05;103014.88;7363472;19;20022;-62
2021/11/23 09:51:53;;;;;;;0.03;0.03;;;;;;;9.74;63.86;103009.72;7363117;19;20766;-63
2021/11/23 09:54:19;;;;;;;0.00;0.00;;;;;;;9.76;63.95;103010.63;7361290;19;20094;-63
2021/11/23 09:56:46;;;;;;;0.08;0.08;;;;;;;9.77;63.60;103012.38;7365111;19;20021;-62
2021/11/23 09:59:12;;;;;;;;;;;;;;;9.87;62.90;103014.28;7359870;19;20073;-63
2021/11/23 10:01:52;;;;;;;0.00;0.00;;;;;;;9.88;63.15;103014.34;7366298;19;19943;-63
2021/11/23 10:04:20;;;;;;;0.00;0.00;;;;;;;9.88;63.57;103008.22;7363187;19;20421;-63
2021/11/23 10:07:01;;;;;;;0.00;0.00;;;;;;;9.91;63.26;103008.28;7357194;19;20482;-61
2021/11/23 10:09:37;;;;;;;0.00;0.00;;;;;;;9.92;63.43;103020.47;7362036;19;20011;-62
2021/11/23 10:12:26;;;;;;;0.00;0.00;;;;;;;9.93;63.16;103017.00;7362696;19;20098;-63
2021/11/23 10:15:16;;;;;;;0.00;0.00;;;;;;;9.93;63.43;103000.47;7360175;19;20474;-63
2021/11/23 10:17:48;;;;;;;0.00;0.00;;;;;;;9.94;63.60;103012.69;7362368;19;20034;-63
2021/11/23 10:20:33;;;;;;;0.00;0.00;;;;;;;9.98;63.45;103007.50;7360118;19;20021;-62
2021/11/23 10:23:19;;;;;;;0.10;0.10;;;;;;;10.00;63.59;103004.94;7362249;19;20027;-63
2021/11/23 10:25:47;;;;;;;0.05;0.05;;;;;;;9.98;63.83;103007.50;7368413;19;20002;-63
2021/11/23 10:28:13;;;;;;;;;;;;;;;10.04;63.31;103007.63;7368471;19;20567;-63
2021/11/23 10:30:41;;;;;;;0.00;0.00;;;;;;;10.02;63.56;103004.09;7366030;19;20383;-63
2021/11/23 10:33:07;;;;;;;0.00;0.00;;;;;;;10.02;63.50;102998.88;7366582;19;20015;-62
2021/11/23 10:35:32;;;;;;;0.00;0.00;;;;;;;10.03;63.90;103008.47;7361353;19;20052;-62
2021/11/23 10:37:59;;;;;;;0.00;0.00;;;;;;;10.00;63.71;102998.00;7364200;19;20011;-63
2021/11/23 10:40:28;;;;;;;0.00;0.00;;;;;;;10.07;64.11;102994.63;7364467;19;20514;-63
2021/11/23 10:42:58;;;;;;;0.00;0.00;;;;;;;10.08;64.01;102995.50;7368352;19;20082;-63
2021/11/23 10:45:24;;;;;;;0.00;0.00;;;;;;;10.07;63.94;102994.63;7361565;19;20038;-63
2021/11/23 10:47:50;;;;;;;0.00;0.00;;;;;;;10.08;64.01;102992.88;7366028;19;20094;-63
2021/11/23 10:50:20;;;;;;;0.00;0.00;;;;;;;10.10;64.04;102994.69;7366663;19;20015;-63
2021/11/23 10:52:49;;;;;;;0.08;0.08;;;;;;;10.05;63.92;102979.78;7359251;19;20022;-61
2021/11/23 10:55:17;;;;;;;0.10;0.10;;;;;;;10.12;64.23;102994.69;7368008;19;20022;-63
2021/11/23 10:57:44;;;;;;;0.00;0.00;;;;;;;10.12;63.95;102994.69;7363322;19;20046;-63
2021/11/23 11:00:12;;;;;;;0.10;0.10;;;;;;;10.09;63.76;102987.72;7365912;19;20022;-62
2021/11/23 11:02:39;;;;;;;0.10;0.10;;;;;;;10.14;64.12;102995.63;7368576;19;20763;-63
2021/11/23 11:05:15;;;;;;;0.00;0.00;;;;;;;10.18;63.90;102976.50;7362542;19;20017;-63
2021/11/23 11:07:41;;;;;;;0.00;0.00;;;;;;;10.18;63.99;102980.84;7367338;19;20018;-63
2021/11/23 11:10:08;;;;;;;0.10;0.10;;;;;;;10.20;64.12;102979.16;7365986;19;20159;-63
2021/11/23 11:12:35;;;;;;;0.00;0.00;;;;;;;10.22;64.09;102972.22;7366166;19;20010;-62
2021/11/23 11:15:03;;;;;;;0.00;0.00;;;;;;;10.24;64.09;102966.22;7363146;19;20045;-62
2021/11/23 11:17:29;;;;;;;0.05;0.05;;;;;;;10.24;64.02;102966.22;7366663;19;20014;-62
2021/11/23 11:19:56;;;;;;;0.00;0.00;;;;;;;10.26;63.76;102968.84;7363169;19;20014;-63
2021/11/23 11:22:23;;;;;;;0.00;0.00;;;;;;;10.18;63.71;102952.13;7368330;19;20050;-63
2021/11/23 11:25:19;;;;;;;;;;;;;;;10.35;63.13;102963.75;7360381;19;20062;-63
2021/11/23 11:27:47;;;;;;;0.00;0.00;;;;;;;10.34;63.70;102970.72;7261189;19;2005137;-63
2021/11/23 11:30:37;;;;;;;0.00;0.00;;;;;;;10.27;63.54;102949.69;7367073;19;20002;-63